createdAt,value
2018-01-13T00:01:24.429Z,78.77
2018-01-13T00:03:51.665Z,73.50
2018-01-13T00:06:18.169Z,69.80
2018-01-13T00:08:44.933Z,63.77
2018-01-13T00:11:12.434Z,85.87
2018-01-13T00:13:39.752Z,74.63
2018-01-13T00:16:06.255Z,75.70
2018-01-13T00:18:33.512Z,68.27
2018-01-13T00:21:00.657Z,68.27
2018-01-13T00:23:28.747Z,79.43
2018-01-13T00:25:55.227Z,74.70
2018-01-13T00:28:22.328Z,66.60
2018-01-13T00:30:48.776Z,74.30
2018-01-13T00:33:15.959Z,69.97
2018-01-13T00:35:42.448Z,68.40
2018-01-13T00:38:08.879Z,77.40
2018-01-13T00:40:35.416Z,75.77
2018-01-13T00:43:01.848Z,74.40
2018-01-13T00:45:28.991Z,92.57
2018-01-13T00:47:55.610Z,72.03
2018-01-13T00:50:22.459Z,70.67
2018-01-13T00:52:48.856Z,72.00
2018-01-13T00:55:15.670Z,87.07
2018-01-13T00:57:42.132Z,82.60
2018-01-13T01:00:09.754Z,83.03
2018-01-13T01:02:36.428Z,82.67
2018-01-13T01:05:02.907Z,82.73
2018-01-13T01:07:29.740Z,78.20
2018-01-13T01:09:56.672Z,74.70
2018-01-13T01:12:24.193Z,88.53
2018-01-13T01:14:51.324Z,74.40
2018-01-13T01:17:17.964Z,86.53
2018-01-13T01:19:44.341Z,83.57
2018-01-13T01:22:10.835Z,81.20
2018-01-13T01:24:38.238Z,81.83
2018-01-13T01:27:05.285Z,78.27
2018-01-13T01:29:31.742Z,71.97
2018-01-13T01:31:58.510Z,83.13
2018-01-13T01:34:25.176Z,80.40
2018-01-13T01:36:52.371Z,80.00
2018-01-13T01:39:19.189Z,79.00
2018-01-13T01:41:46.878Z,84.37
2018-01-13T01:44:13.433Z,76.13
2018-01-13T01:46:39.909Z,69.67
2018-01-13T01:49:06.602Z,79.07
2018-01-13T01:51:33.144Z,80.33
2018-01-13T01:54:00.953Z,82.93
2018-01-13T01:56:27.808Z,94.70
2018-01-13T01:58:54.278Z,90.27
2018-01-13T02:01:21.566Z,84.77
2018-01-13T02:03:48.763Z,84.50
2018-01-13T02:06:15.239Z,85.90
2018-01-13T02:08:41.669Z,96.90
2018-01-13T02:11:08.625Z,73.43
2018-01-13T02:13:35.044Z,83.40
2018-01-13T02:16:01.577Z,86.57
2018-01-13T02:18:27.980Z,80.43
2018-01-13T02:20:54.396Z,89.20
2018-01-13T02:23:20.846Z,85.87
2018-01-13T02:25:53.252Z,101.13
2018-01-13T02:28:19.767Z,104.73
2018-01-13T02:30:47.727Z,93.93
2018-01-13T02:33:14.610Z,101.83
2018-01-13T02:35:41.852Z,100.60
2018-01-13T02:38:09.153Z,82.87
2018-01-13T02:40:35.607Z,100.37
2018-01-13T02:43:02.166Z,93.97
2018-01-13T02:45:29.419Z,80.40
2018-01-13T02:47:55.917Z,94.73
2018-01-13T02:50:22.368Z,109.87
2018-01-13T02:52:49.126Z,91.00
2018-01-13T02:55:16.299Z,73.53
2018-01-13T02:57:43.945Z,85.07
2018-01-13T03:00:10.384Z,97.53
2018-01-13T03:02:36.828Z,83.03
2018-01-13T03:05:04.016Z,101.23
2018-01-13T03:07:32.087Z,97.00
2018-01-13T03:09:58.483Z,98.50
2018-01-13T03:12:24.931Z,105.90
2018-01-13T03:14:52.061Z,101.07
2018-01-13T03:17:18.436Z,95.30
2018-01-13T03:19:45.637Z,97.60
2018-01-13T03:22:12.100Z,97.73
2018-01-13T03:24:38.695Z,98.70
2018-01-13T03:27:05.328Z,89.47
2018-01-13T03:29:40.115Z,101.20
2018-01-13T03:32:08.227Z,101.83
2018-01-13T03:34:35.371Z,91.23
2018-01-13T03:37:01.910Z,87.90
2018-01-13T03:39:29.073Z,96.73
2018-01-13T03:41:55.490Z,95.73
2018-01-13T03:44:21.898Z,104.53
2018-01-13T03:46:48.486Z,87.93
2018-01-13T03:49:14.919Z,100.50
2018-01-13T03:51:41.416Z,91.13
2018-01-13T03:54:07.994Z,88.60
2018-01-13T03:56:34.728Z,100.87
2018-01-13T03:59:01.139Z,92.43
2018-01-13T04:01:28.718Z,101.10
2018-01-13T04:03:55.162Z,100.37
2018-01-13T04:06:22.350Z,93.27
2018-01-13T04:08:48.756Z,101.30
2018-01-13T04:11:15.189Z,96.50
2018-01-13T04:13:41.576Z,98.30
2018-01-13T04:16:08.424Z,97.27
2018-01-13T04:18:34.847Z,99.47
2018-01-13T04:21:01.348Z,97.63
2018-01-13T04:23:28.934Z,86.37
2018-01-13T04:25:55.691Z,94.43
2018-01-13T04:28:22.559Z,97.83
2018-01-13T04:30:48.969Z,101.30
2018-01-13T04:33:15.431Z,82.73
2018-01-13T04:35:42.616Z,72.43
2018-01-13T04:38:10.128Z,90.30
2018-01-13T04:40:36.549Z,77.77
2018-01-13T04:43:03.208Z,106.23
2018-01-13T04:48:26.881Z,94.33
2018-01-13T04:50:53.811Z,86.37
2018-01-13T04:53:21.925Z,84.40
2018-01-13T04:55:48.736Z,86.87
2018-01-13T04:58:15.137Z,80.73
2018-01-13T05:00:42.215Z,71.67
2018-01-13T05:03:11.236Z,86.97
2018-01-13T05:05:37.849Z,79.40
2018-01-13T05:08:05.217Z,72.37
2018-01-13T05:10:32.190Z,83.23
2018-01-13T05:12:58.643Z,56.27
2018-01-13T05:15:25.080Z,83.90
2018-01-13T05:17:51.448Z,80.93
2018-01-13T05:20:20.230Z,80.40
2018-01-13T05:22:47.183Z,70.47
2018-01-13T05:25:13.996Z,70.23
2018-01-13T05:27:41.289Z,69.30
2018-01-13T05:30:08.967Z,78.73
2018-01-13T05:32:36.233Z,66.97
2018-01-13T05:35:04.758Z,79.17
2018-01-13T05:37:31.723Z,62.57
2018-01-13T05:39:58.353Z,72.80
2018-01-13T05:42:28.574Z,77.87
2018-01-13T05:44:56.151Z,84.57
2018-01-13T05:47:23.823Z,64.67
2018-01-13T05:49:50.641Z,81.23
2018-01-13T05:52:18.123Z,69.50
2018-01-13T05:54:44.713Z,65.20
2018-01-13T05:57:11.657Z,75.30
2018-01-13T05:59:38.759Z,76.87
2018-01-13T06:02:05.268Z,76.93
2018-01-13T06:04:32.897Z,80.70
2018-01-13T06:06:59.941Z,66.43
2018-01-13T06:09:26.849Z,72.40
2018-01-13T06:11:54.619Z,71.17
2018-01-13T06:14:22.669Z,75.07
2018-01-13T06:16:49.289Z,72.17
2018-01-13T06:19:16.177Z,57.47
2018-01-13T06:21:42.458Z,79.73
2018-01-13T06:24:10.850Z,77.73
2018-01-13T06:26:45.726Z,75.00
2018-01-13T06:29:15.413Z,84.03
2018-01-13T06:31:42.806Z,66.73
2018-01-13T06:34:09.701Z,71.00
2018-01-13T06:36:36.981Z,81.23
2018-01-13T06:39:04.319Z,80.07
2018-01-13T06:41:31.117Z,68.23
2018-01-13T06:43:57.546Z,69.97
2018-01-13T06:46:24.054Z,78.60
2018-01-13T06:48:52.054Z,72.70
2018-01-13T06:51:20.465Z,72.10
2018-01-13T06:53:46.948Z,83.40
2018-01-13T06:56:13.372Z,85.57
2018-01-13T06:58:40.416Z,79.53
2018-01-13T07:01:07.244Z,72.53
2018-01-13T07:03:33.750Z,78.73
2018-01-13T07:06:00.933Z,77.27
2018-01-13T07:08:28.020Z,68.27
2018-01-13T07:10:54.593Z,85.60
2018-01-13T07:13:21.028Z,70.67
2018-01-13T07:15:48.619Z,82.90
2018-01-13T07:18:15.171Z,82.13
2018-01-13T07:20:41.673Z,76.10
2018-01-13T07:23:09.024Z,82.37
2018-01-13T07:25:36.227Z,76.93
2018-01-13T07:28:03.208Z,76.00
2018-01-13T07:30:30.022Z,78.97
2018-01-13T07:32:56.658Z,86.53
2018-01-13T07:35:24.176Z,76.57
2018-01-13T07:37:50.705Z,83.30
2018-01-13T07:40:18.846Z,82.80
2018-01-13T07:42:45.768Z,84.40
2018-01-13T07:45:13.349Z,76.60
2018-01-13T07:47:42.265Z,84.97
2018-01-13T07:50:09.228Z,82.47
2018-01-13T07:52:37.331Z,83.17
2018-01-13T07:55:04.315Z,70.63
2018-01-13T07:57:31.267Z,77.33
2018-01-13T07:59:57.800Z,75.03
2018-01-13T08:02:25.365Z,70.37
2018-01-13T08:04:53.379Z,72.20
2018-01-13T08:07:20.767Z,70.87
2018-01-13T08:09:48.644Z,86.77
2018-01-13T08:12:15.089Z,68.47
2018-01-13T08:14:42.346Z,71.47
2018-01-13T08:17:09.143Z,78.07
2018-01-13T08:19:37.348Z,73.57
2018-01-13T08:33:28.246Z,74.67
2018-01-13T08:35:56.228Z,69.67
2018-01-13T08:38:23.823Z,68.60
2018-01-13T08:40:51.925Z,66.03
2018-01-13T08:43:20.201Z,68.40
2018-01-13T08:45:48.314Z,70.20
2018-01-13T08:48:16.924Z,66.83
2018-01-13T08:50:45.143Z,77.70
2018-01-13T08:53:19.552Z,70.80
2018-01-13T08:55:46.800Z,64.40
2018-01-13T08:58:15.797Z,58.40
2018-01-13T09:00:42.454Z,59.23
2018-01-13T09:03:10.722Z,61.70
2018-01-13T09:05:38.058Z,55.40
2018-01-13T09:08:05.185Z,70.03
2018-01-13T09:10:31.556Z,59.53
2018-01-13T09:12:57.980Z,67.40
2018-01-13T09:15:25.888Z,59.90
2018-01-13T09:17:52.359Z,63.10
2018-01-13T09:20:18.736Z,71.27
2018-01-13T09:22:46.845Z,54.70
2018-01-13T09:25:13.976Z,62.17
2018-01-13T09:27:41.187Z,54.43
2018-01-13T09:30:09.259Z,60.03
2018-01-13T09:32:35.762Z,59.00
2018-01-13T09:35:02.272Z,63.63
2018-01-13T09:37:29.090Z,56.43
2018-01-13T09:39:56.301Z,47.23
2018-01-13T09:42:23.505Z,50.87
2018-01-13T09:44:50.123Z,59.57
2018-01-13T09:47:16.872Z,53.50
2018-01-13T09:49:44.582Z,61.50
2018-01-13T09:52:12.543Z,50.57
2018-01-13T09:54:39.736Z,52.77
2018-01-13T09:57:06.236Z,50.43
2018-01-13T09:59:32.749Z,54.97
2018-01-13T10:01:59.218Z,47.37
2018-01-13T10:04:25.651Z,50.57
2018-01-13T10:06:52.348Z,52.33
2018-01-13T10:09:20.471Z,48.43
2018-01-13T10:11:46.840Z,44.80
2018-01-13T10:14:13.363Z,48.80
2018-01-13T10:16:40.071Z,55.80
2018-01-13T10:19:07.123Z,46.60
2018-01-13T10:21:35.231Z,47.57
2018-01-13T10:24:03.904Z,47.23
2018-01-13T10:26:30.317Z,42.77
2018-01-13T10:28:57.556Z,49.03
2018-01-13T10:31:24.285Z,46.67
2018-01-13T10:33:55.144Z,46.43
2018-01-13T10:36:22.380Z,47.20
2018-01-13T10:38:50.209Z,45.30
2018-01-13T10:41:18.253Z,42.93
2018-01-13T10:43:46.350Z,44.53
2018-01-13T10:46:14.498Z,44.23
2018-01-13T10:48:42.227Z,53.50
2018-01-13T10:51:08.832Z,37.27
2018-01-13T10:53:37.049Z,39.00
2018-01-13T10:56:03.523Z,48.37
2018-01-13T10:58:31.792Z,33.93
2018-01-13T11:00:58.430Z,28.77
2018-01-13T11:03:27.482Z,39.33
2018-01-13T11:05:55.674Z,39.47
2018-01-13T11:08:22.123Z,32.03
2018-01-13T11:10:49.994Z,35.80
2018-01-13T11:13:17.196Z,34.20
2018-01-13T11:15:45.327Z,35.57
2018-01-13T11:18:13.620Z,37.67
2018-01-13T11:20:41.208Z,29.47
2018-01-13T11:23:08.968Z,35.97
2018-01-13T11:25:36.404Z,41.10
2018-01-13T11:28:05.154Z,29.57
2018-01-13T11:30:32.720Z,33.23
2018-01-13T11:33:00.658Z,39.73
2018-01-13T11:35:28.785Z,28.70
2018-01-13T11:37:57.140Z,29.20
2018-01-13T11:40:24.456Z,30.80
2018-01-13T11:42:51.594Z,26.63
2018-01-13T11:45:19.108Z,27.40
2018-01-13T11:47:47.512Z,21.70
2018-01-13T11:50:14.125Z,19.77
2018-01-13T11:52:41.454Z,22.57
2018-01-13T11:55:07.994Z,17.07
2018-01-13T11:57:35.445Z,29.13
2018-01-13T12:00:02.879Z,19.23
2018-01-13T12:02:30.640Z,23.27
2018-01-13T12:04:58.673Z,21.67
2018-01-13T12:07:25.820Z,18.77
2018-01-13T12:09:52.627Z,14.33
2018-01-13T12:12:19.219Z,18.63
2018-01-13T12:14:45.619Z,17.00
2018-01-13T12:17:12.096Z,17.13
2018-01-13T12:19:38.952Z,15.83
2018-01-13T12:22:11.626Z,21.10
2018-01-13T12:24:40.052Z,15.03
2018-01-13T12:27:07.452Z,13.93
2018-01-13T12:29:35.170Z,15.83
2018-01-13T12:32:02.671Z,19.43
2018-01-13T12:34:30.482Z,17.07
2018-01-13T12:36:58.542Z,14.73
2018-01-13T12:39:27.449Z,12.00
2018-01-13T12:41:54.967Z,15.47
2018-01-13T12:44:23.273Z,14.40
2018-01-13T12:46:51.598Z,14.80
2018-01-13T12:49:18.707Z,14.70
2018-01-13T12:51:47.305Z,15.90
2018-01-13T12:54:14.332Z,13.77
2018-01-13T12:56:42.593Z,12.83
2018-01-13T12:59:10.633Z,12.87
2018-01-13T13:01:39.101Z,14.50
2018-01-13T13:04:08.620Z,12.67
2018-01-13T13:06:35.594Z,16.07
2018-01-13T13:09:03.056Z,12.97
2018-01-13T13:11:30.090Z,15.03
2018-01-13T13:13:57.325Z,9.33
2018-01-13T13:16:24.344Z,14.43
2018-01-13T13:18:51.568Z,14.13
2018-01-13T13:21:18.081Z,10.67
2018-01-13T13:23:46.297Z,14.83
2018-01-13T13:26:12.925Z,12.27
2018-01-13T13:28:40.228Z,14.20
2018-01-13T13:31:07.443Z,12.50
2018-01-13T13:33:34.287Z,11.90
2018-01-13T13:36:01.168Z,11.77
2018-01-13T13:38:27.932Z,16.47
2018-01-13T13:40:56.329Z,12.27
2018-01-13T13:43:23.717Z,11.67
2018-01-13T13:45:51.372Z,11.70
2018-01-13T13:48:17.840Z,11.17
2018-01-13T13:50:44.488Z,9.40
2018-01-13T13:53:11.113Z,10.20
2018-01-13T13:55:38.336Z,11.40
2018-01-13T13:58:04.844Z,12.10
2018-01-13T14:00:33.016Z,11.70
2018-01-13T14:03:01.000Z,15.30
2018-01-13T14:05:29.295Z,10.80
2018-01-13T14:07:57.564Z,10.13
2018-01-13T14:10:26.507Z,13.57
2018-01-13T14:12:54.008Z,11.13
2018-01-13T14:15:22.293Z,11.57
2018-01-13T14:17:49.514Z,10.30
2018-01-13T14:20:16.837Z,11.87
2018-01-13T14:22:43.567Z,10.97
2018-01-13T14:25:17.475Z,11.20
2018-01-13T14:27:45.028Z,8.53
2018-01-13T14:30:11.529Z,9.97
2018-01-13T14:32:39.412Z,13.03
2018-01-13T14:35:07.813Z,13.10
2018-01-13T14:37:35.437Z,12.47
2018-01-13T14:40:03.052Z,15.20
2018-01-13T14:42:30.264Z,12.20
2018-01-13T14:44:57.476Z,11.90
2018-01-13T14:47:24.350Z,9.57
2018-01-13T14:49:50.737Z,10.37
2018-01-13T14:52:17.862Z,12.33
2018-01-13T14:54:45.629Z,8.50
2018-01-13T14:57:12.554Z,12.80
2018-01-13T14:59:39.723Z,17.60
2018-01-13T15:02:06.852Z,12.83
2018-01-13T15:04:33.760Z,13.63
2018-01-13T15:07:01.590Z,14.90
2018-01-13T15:09:29.334Z,15.70
2018-01-13T15:11:57.153Z,16.30
2018-01-13T15:14:24.073Z,15.03
2018-01-13T15:16:52.414Z,12.00
2018-01-13T15:19:19.825Z,13.03
2018-01-13T15:21:46.259Z,12.10
2018-01-13T15:24:14.358Z,12.63
2018-01-13T15:26:41.452Z,13.87
2018-01-13T15:29:09.549Z,14.13
2018-01-13T15:31:36.422Z,16.53
2018-01-13T15:34:05.610Z,16.30
2018-01-13T15:36:34.043Z,12.43
2018-01-13T15:39:00.552Z,15.33
2018-01-13T15:41:27.452Z,25.03
2018-01-13T15:43:54.694Z,23.20
2018-01-13T15:46:23.930Z,14.33
2018-01-13T15:48:50.506Z,22.57
2018-01-13T15:51:18.077Z,20.70
2018-01-13T15:53:47.054Z,15.43
2018-01-13T15:56:16.265Z,14.70
2018-01-13T15:58:44.018Z,14.20
2018-01-13T16:01:11.583Z,15.07
2018-01-13T16:03:38.343Z,14.33
2018-01-13T16:06:05.984Z,19.90
2018-01-13T16:08:33.935Z,18.73
2018-01-13T16:11:00.939Z,18.93
2018-01-13T16:13:27.390Z,13.57
2018-01-13T16:15:55.503Z,12.93
2018-01-13T16:18:22.340Z,17.83
2018-01-13T16:20:49.552Z,20.60
2018-01-13T16:23:17.030Z,18.17
2018-01-13T16:25:44.399Z,21.23
2018-01-13T16:28:10.879Z,17.27
2018-01-13T16:30:38.735Z,18.27
2018-01-13T16:33:05.468Z,21.57
2018-01-13T16:35:32.613Z,21.37
2018-01-13T16:38:00.092Z,21.10
2018-01-13T16:40:27.277Z,18.57
2018-01-13T16:42:55.476Z,14.20
2018-01-13T16:45:23.036Z,21.37
2018-01-13T16:47:50.372Z,13.93
2018-01-13T16:50:17.585Z,12.20
2018-01-13T16:52:45.652Z,22.93
2018-01-13T16:55:12.729Z,14.73
2018-01-13T16:57:40.988Z,15.50
2018-01-13T17:00:08.784Z,19.43
2018-01-13T17:02:37.381Z,18.00
2018-01-13T17:05:04.194Z,22.10
2018-01-13T17:07:31.311Z,17.33
2018-01-13T17:09:58.537Z,15.70
2018-01-13T17:12:25.591Z,18.50
2018-01-13T17:14:52.162Z,18.43
2018-01-13T17:17:19.235Z,20.20
2018-01-13T17:19:45.881Z,23.80
2018-01-13T17:50:35.138Z,24.03
2018-01-13T17:53:01.621Z,19.63
2018-01-13T17:55:28.372Z,18.70
2018-01-13T17:57:55.703Z,22.60
2018-01-13T18:00:23.041Z,19.07
2018-01-13T18:02:49.475Z,19.77
2018-01-13T18:05:16.398Z,20.40
2018-01-13T18:07:42.964Z,20.73
2018-01-13T18:10:09.423Z,17.60
2018-01-13T18:12:35.995Z,20.93
2018-01-13T18:15:02.586Z,15.13
2018-01-13T18:17:29.067Z,19.83
2018-01-13T18:19:57.250Z,15.97
2018-01-13T18:22:25.450Z,17.97
2018-01-13T18:24:52.872Z,18.60
2018-01-13T18:27:20.154Z,18.73
2018-01-13T18:29:46.552Z,16.10
2018-01-13T18:32:13.833Z,22.03
2018-01-13T18:34:40.468Z,24.13
2018-01-13T18:37:07.929Z,14.60
2018-01-13T18:39:35.261Z,16.73
2018-01-13T18:42:04.061Z,16.97
2018-01-13T18:44:30.660Z,18.73
2018-01-13T18:46:57.513Z,19.70
2018-01-13T18:49:26.053Z,17.23
2018-01-13T18:51:54.055Z,20.80
2018-01-13T18:54:22.358Z,13.30
2018-01-13T18:56:50.766Z,17.10
2018-01-13T18:59:17.688Z,16.20
2018-01-13T19:01:44.536Z,17.13
2018-01-13T19:04:12.108Z,19.20
2018-01-13T19:06:40.069Z,15.37
2018-01-13T19:09:06.479Z,20.63
2018-01-13T19:11:33.316Z,17.20
2018-01-13T19:14:01.057Z,15.37
2018-01-13T19:16:27.968Z,14.60
2018-01-13T19:18:56.535Z,16.43
2018-01-13T19:21:23.112Z,17.17
2018-01-13T19:23:51.510Z,13.87
2018-01-13T19:26:19.430Z,15.40
2018-01-13T19:28:45.993Z,17.07
2018-01-13T19:31:12.692Z,18.37
2018-01-13T19:33:41.162Z,23.07
2018-01-13T19:36:07.751Z,15.63
2018-01-13T19:38:35.901Z,13.80
2018-01-13T19:41:04.080Z,14.20
2018-01-13T19:43:32.286Z,15.30
2018-01-13T19:45:59.104Z,14.27
2018-01-13T19:48:27.668Z,16.37
2018-01-13T19:50:55.340Z,17.30
2018-01-13T19:53:23.400Z,19.33
2018-01-13T19:55:49.926Z,15.40
2018-01-13T19:58:16.804Z,18.20
2018-01-13T20:00:44.986Z,12.93
2018-01-13T20:03:11.657Z,19.37
2018-01-13T20:05:39.895Z,16.17
2018-01-13T20:08:06.689Z,16.37
2018-01-13T20:10:35.238Z,14.00
2018-01-13T20:13:01.805Z,19.27
2018-01-13T20:15:29.085Z,15.30
2018-01-13T20:17:55.511Z,16.57
2018-01-13T20:20:23.878Z,14.80
2018-01-13T20:22:50.344Z,16.13
2018-01-13T20:25:17.830Z,18.30
2018-01-13T20:27:44.318Z,18.20
2018-01-13T20:30:11.165Z,17.13
2018-01-13T20:32:37.643Z,18.83
2018-01-13T20:35:05.184Z,15.37
2018-01-13T20:37:31.696Z,27.10
2018-01-13T20:39:58.142Z,20.33
2018-01-13T20:42:26.268Z,10.67
2018-01-13T20:44:52.715Z,20.23
2018-01-13T20:47:19.232Z,13.37
2018-01-13T20:49:45.773Z,17.07
2018-01-13T20:52:12.342Z,21.77
2018-01-13T20:54:39.016Z,20.43
2018-01-13T20:57:05.672Z,12.73
2018-01-13T20:59:32.229Z,17.27
2018-01-13T21:01:59.327Z,15.53
2018-01-13T21:04:26.416Z,15.90
2018-01-13T21:06:52.972Z,14.83
2018-01-13T21:09:21.127Z,13.97
2018-01-13T21:11:49.331Z,17.13
2018-01-13T21:14:16.010Z,17.70
2018-01-13T21:16:42.729Z,21.10
2018-01-13T21:19:09.312Z,24.10
2018-01-13T21:21:35.796Z,17.67
2018-01-13T21:24:02.436Z,14.63
2018-01-13T21:26:28.984Z,16.80
2018-01-13T21:28:55.405Z,33.53
2018-01-13T21:31:22.425Z,23.57
2018-01-13T21:33:49.089Z,18.23
2018-01-13T21:36:15.908Z,16.13
2018-01-13T21:38:42.805Z,24.20
2018-01-13T21:41:09.602Z,23.20
2018-01-13T21:43:36.111Z,20.10
2018-01-13T21:46:03.542Z,19.50
2018-01-13T21:48:30.915Z,22.33
2018-01-13T21:50:57.386Z,24.10
2018-01-13T21:53:23.820Z,22.73
2018-01-13T21:55:50.886Z,16.80
2018-01-13T21:58:18.392Z,22.87
2018-01-13T22:00:45.003Z,18.90
2018-01-13T22:03:11.953Z,20.67
2018-01-13T22:05:38.379Z,22.00
2018-01-13T22:08:05.326Z,21.23
2018-01-13T22:10:33.448Z,27.17
2018-01-13T22:12:59.981Z,23.13
2018-01-13T22:15:26.518Z,24.00
2018-01-13T22:17:53.014Z,25.30
2018-01-13T22:20:19.512Z,19.40
2018-01-13T22:22:46.198Z,26.30
2018-01-13T22:25:13.158Z,22.50
2018-01-13T22:27:40.062Z,26.13
2018-01-13T22:30:06.678Z,19.30
2018-01-13T22:32:33.112Z,18.17
2018-01-13T22:35:00.095Z,21.17
2018-01-13T22:37:26.661Z,17.83
2018-01-13T22:39:53.116Z,21.03
2018-01-13T22:42:19.553Z,20.13
2018-01-13T22:44:46.035Z,22.13
2018-01-13T22:47:14.253Z,18.33
2018-01-13T22:49:42.539Z,13.70
2018-01-13T22:52:09.049Z,22.77
2018-01-13T22:54:35.596Z,29.30
2018-01-13T22:57:02.078Z,24.60
2018-01-13T22:59:30.188Z,22.93
2018-01-13T23:01:56.761Z,22.30
2018-01-13T23:04:23.202Z,26.67
2018-01-13T23:06:49.739Z,20.53
2018-01-13T23:09:16.269Z,22.00
2018-01-13T23:11:42.863Z,25.40
2018-01-13T23:14:09.916Z,22.90
2018-01-13T23:16:36.549Z,23.73
2018-01-13T23:19:03.883Z,27.57
2018-01-13T23:21:30.695Z,22.67
2018-01-13T23:23:57.919Z,24.93
2018-01-13T23:26:24.327Z,22.00
2018-01-13T23:28:51.111Z,24.63
2018-01-13T23:31:18.273Z,28.77
2018-01-13T23:33:44.717Z,23.77
2018-01-13T23:36:11.161Z,22.77
2018-01-13T23:38:38.651Z,23.07
2018-01-13T23:41:06.787Z,27.13
2018-01-13T23:43:33.356Z,27.73
2018-01-13T23:45:59.741Z,23.77
2018-01-13T23:48:27.656Z,27.40
2018-01-13T23:50:55.665Z,22.53
2018-01-13T23:53:22.220Z,26.23
2018-01-13T23:55:48.709Z,28.63
2018-01-13T23:58:16.882Z,30.80
